Shanghai Express — DPCK — position and weather

sailwx.info

Track history (hours):
 
Tides and Currents Weather Stations Pressure Air Temp Water Temp Dewpoint Dewpoint Depression Visibility Wind Speed Wind Dir Waves Ship Positions

Shanghai Express

Last reported at 2014-Oct-22 12:00 UTC. Time now 2014-Oct-22 13:55 UTC.
Position N 39°18' W 036°18'.

Length 320.6 m; beam 42.8 m; draft 14.5 m.

Type: Ship. MMSI: 211367460.

Wind from 050 at 25 knots

Waves 2.0 meters (7 feet), 12 second period

Barometer 1021.5 mb
Air temperature 18.0 ° C
Visibility: greater than 5.4 NM
Dewpoint 16.4 ° C
Water temperature 20.0 ° C

Date/timePositionNaut miles runAvg speedWind from/ knotsBaromVisibWave heightAir tempDewpointWater temp
2014-Oct-22 12:00N 39°18' W 036°18'21818.2 050 / 251021.5 5.4 2.018.016.420.0
2014-Oct-22 00:00N 39°12' W 041°00'21517.9 090 / 141023.0 5.4 18.014.820.0
2014-Oct-21 12:00N 38°54' W 045°36'21317.7 180 / 211020.0 5.4 2.022.020.022.0
2014-Oct-21 00:00N 38°24' W 050°06'21417.9 050 / 161016.5 5.4 20.519.824.0
2014-Oct-20 12:00N 37°54' W 054°36'42617.8 180 / 261014.0 5.4 3.024.622.925.0
2014-Oct-19 12:00N 37°48' W 063°36'23719.8 220 / 211009.010.8 2.024.020.823.0
2014-Oct-19 00:00N 37°48' W 068°36'12621.0 260 / 251005.0 5.4 22.020.626.0
2014-Oct-18 18:00N 37°24' W 071°12'21419.7 230 / 261004.010.8 2.026.022.527.0
2014-Oct-18 07:09N 36°50' W 075°36'1015.8
2014-Oct-18 06:33N 36°50' W 075°48'1414.4
2014-Oct-18 05:33N 36°58' W 076°04'1313.3
2014-Oct-18 04:33N 36°57' W 076°20'3 2.6
2014-Oct-18 03:33N 36°55' W 076°20'0 0.0
2014-Oct-18 02:28N 36°55' W 076°20'0 0.0
2014-Oct-18 01:31N 36°55' W 076°20'0 0.0
2014-Oct-18 00:06N 36°55' W 076°20'0 0.0
2014-Oct-17 22:18N 36°55' W 076°20'0 0.0
2014-Oct-17 20:32N 36°55' W 076°20'0 0.0
2014-Oct-17 18:25N 36°55' W 076°20'0 0.0
2014-Oct-17 16:09N 36°55' W 076°20'0 0.0
2014-Oct-17 15:27N 36°55' W 076°20'0 0.0
2014-Oct-17 14:11N 36°55' W 076°20'0 0.0
2014-Oct-17 13:12N 36°55' W 076°20'0 0.0
2014-Oct-17 12:09N 36°55' W 076°20'0 0.0
2014-Oct-17 11:11N 36°55' W 076°20'1 0.3
2014-Oct-17 09:33N 36°55' W 076°20'8 8.2
2014-Oct-17 08:32N 36°60' W 076°11'1414.1
2014-Oct-17 07:33N 36°55' W 075°55'2114.9
2014-Oct-17 06:08N 36°44' W 075°32'19516.1
2014-Oct-16 18:00N 33°36' W 076°36'24016.6 270 / 181009.210.8 1.025.015.827.0
2014-Oct-16 03:33N 32°06' W 081°01'5 5.1
2014-Oct-16 02:33N 32°06' W 081°07'1 1.3
2014-Oct-16 01:33N 32°07' W 081°08'0 0.0
2014-Oct-16 00:33N 32°07' W 081°08'0 0.0
2014-Oct-15 23:30N 32°07' W 081°08'0 0.0
2014-Oct-15 22:27N 32°07' W 081°08'0 0.0
2014-Oct-15 21:32N 32°07' W 081°08'0 0.0
2014-Oct-15 20:31N 32°07' W 081°08'0 0.0
2014-Oct-15 19:31N 32°07' W 081°08'0 0.0
2014-Oct-15 18:31N 32°07' W 081°08'0 0.0
2014-Oct-15 17:33N 32°07' W 081°08'0 0.0
2014-Oct-15 16:30N 32°07' W 081°08'0 0.0
2014-Oct-15 15:33N 32°07' W 081°08'0 0.0
2014-Oct-15 14:32N 32°07' W 081°08'0 0.0
2014-Oct-15 13:25N 32°07' W 081°08'0 0.0
2014-Oct-15 12:28N 32°07' W 081°08'0 0.0
2014-Oct-15 10:09N 32°07' W 081°08'0 0.0
2014-Oct-15 08:20N 32°07' W 081°08'0 0.0
2014-Oct-15 07:26N 32°07' W 081°08'0 0.0
2014-Oct-15 06:31N 32°07' W 081°08'0 0.0
2014-Oct-15 05:31N 32°07' W 081°08'0 0.0
2014-Oct-15 04:28N 32°07' W 081°08'0 0.0
2014-Oct-15 03:30N 32°07' W 081°08'0 0.0
2014-Oct-15 02:33N 32°07' W 081°08'0 0.0
2014-Oct-15 01:32N 32°07' W 081°08'0 0.0
2014-Oct-15 00:32N 32°07' W 081°08'0 0.0
2014-Oct-14 23:32N 32°07' W 081°08'0 0.0
2014-Oct-14 22:31N 32°07' W 081°08'0 0.0
2014-Oct-14 21:30N 32°07' W 081°08'0 0.3
2014-Oct-14 20:33N 32°08' W 081°08'5 5.2
2014-Oct-14 19:34N 32°05' W 081°03'1310.0
2014-Oct-14 18:14N 32°01' W 080°48'49416.1
2014-Oct-13 11:33N 38°16' W 074°14'1919.0
2014-Oct-13 10:32N 38°35' W 074°09'2019.1
2014-Oct-13 09:28N 38°54' W 074°02'1819.3
2014-Oct-13 08:33N 39°11' W 073°57'1919.0
2014-Oct-13 07:33N 39°30' W 073°53'1919.1
2014-Oct-13 06:33N 39°49' W 073°51'1919.1
2014-Oct-13 05:33N 40°08' W 073°50'1817.5
2014-Oct-13 04:33N 40°26' W 073°49'1313.0
2014-Oct-13 03:33N 40°34' W 074°02'7 6.7
2014-Oct-13 02:33N 40°39' W 074°09'2 1.7
2014-Oct-13 01:32N 40°40' W 074°08'0 0.0
2014-Oct-13 00:22N 40°40' W 074°08'0 0.0
2014-Oct-12 23:31N 40°40' W 074°08'0 0.0
2014-Oct-12 22:32N 40°40' W 074°08'0 0.0
2014-Oct-12 19:13N 40°40' W 074°08'0 0.0
2014-Oct-12 12:16N 40°40' W 074°08'  
Track history (hours):
 
Tides and Currents Weather Stations Pressure Air Temp Water Temp Dewpoint Dewpoint Depression Visibility Wind Speed Wind Dir Waves Ship Positions

Shanghai Express

Last reported at 2014-Oct-22 12:00 UTC. Time now 2014-Oct-22 13:55 UTC.
Position N 39°18' W 036°18'.

Length 320.6 m; beam 42.8 m; draft 14.5 m.

Type: Ship. MMSI: 211367460.

Wind from 050 at 25 knots

Waves 2.0 meters (7 feet), 12 second period

Barometer 1021.5 mb
Air temperature 18.0 ° C
Visibility: greater than 5.4 NM
Dewpoint 16.4 ° C
Water temperature 20.0 ° C

Date/timePositionNaut miles runAvg speedWind from/ knotsBaromVisibWave heightAir tempDewpointWater temp
2014-Oct-22 12:00N 39°18' W 036°18'21818.2 050 / 251021.5 5.4 2.018.016.420.0
2014-Oct-22 00:00N 39°12' W 041°00'21517.9 090 / 141023.0 5.4 18.014.820.0
2014-Oct-21 12:00N 38°54' W 045°36'21317.7 180 / 211020.0 5.4 2.022.020.022.0
2014-Oct-21 00:00N 38°24' W 050°06'21417.9 050 / 161016.5 5.4 20.519.824.0
2014-Oct-20 12:00N 37°54' W 054°36'42617.8 180 / 261014.0 5.4 3.024.622.925.0
2014-Oct-19 12:00N 37°48' W 063°36'23719.8 220 / 211009.010.8 2.024.020.823.0
2014-Oct-19 00:00N 37°48' W 068°36'12621.0 260 / 251005.0 5.4 22.020.626.0
2014-Oct-18 18:00N 37°24' W 071°12'21419.7 230 / 261004.010.8 2.026.022.527.0
2014-Oct-18 07:09N 36°50' W 075°36'1015.8
2014-Oct-18 06:33N 36°50' W 075°48'1414.4
2014-Oct-18 05:33N 36°58' W 076°04'1313.3
2014-Oct-18 04:33N 36°57' W 076°20'3 2.6
2014-Oct-18 03:33N 36°55' W 076°20'0 0.0
2014-Oct-18 02:28N 36°55' W 076°20'0 0.0
2014-Oct-18 01:31N 36°55' W 076°20'0 0.0
2014-Oct-18 00:06N 36°55' W 076°20'0 0.0
2014-Oct-17 22:18N 36°55' W 076°20'0 0.0
2014-Oct-17 20:32N 36°55' W 076°20'0 0.0
2014-Oct-17 18:25N 36°55' W 076°20'0 0.0
2014-Oct-17 16:09N 36°55' W 076°20'0 0.0
2014-Oct-17 15:27N 36°55' W 076°20'0 0.0
2014-Oct-17 14:11N 36°55' W 076°20'0 0.0
2014-Oct-17 13:12N 36°55' W 076°20'0 0.0
2014-Oct-17 12:09N 36°55' W 076°20'0 0.0
2014-Oct-17 11:11N 36°55' W 076°20'1 0.3
2014-Oct-17 09:33N 36°55' W 076°20'8 8.2
2014-Oct-17 08:32N 36°60' W 076°11'1414.1
2014-Oct-17 07:33N 36°55' W 075°55'2114.9
2014-Oct-17 06:08N 36°44' W 075°32'19516.1
2014-Oct-16 18:00N 33°36' W 076°36'24016.6 270 / 181009.210.8 1.025.015.827.0
2014-Oct-16 03:33N 32°06' W 081°01'5 5.1
2014-Oct-16 02:33N 32°06' W 081°07'1 1.3
2014-Oct-16 01:33N 32°07' W 081°08'0 0.0
2014-Oct-16 00:33N 32°07' W 081°08'0 0.0
2014-Oct-15 23:30N 32°07' W 081°08'0 0.0
2014-Oct-15 22:27N 32°07' W 081°08'0 0.0
2014-Oct-15 21:32N 32°07' W 081°08'0 0.0
2014-Oct-15 20:31N 32°07' W 081°08'0 0.0
2014-Oct-15 19:31N 32°07' W 081°08'0 0.0
2014-Oct-15 18:31N 32°07' W 081°08'0 0.0
2014-Oct-15 17:33N 32°07' W 081°08'0 0.0
2014-Oct-15 16:30N 32°07' W 081°08'0 0.0
2014-Oct-15 15:33N 32°07' W 081°08'0 0.0
2014-Oct-15 14:32N 32°07' W 081°08'0 0.0
2014-Oct-15 13:25N 32°07' W 081°08'0 0.0
2014-Oct-15 12:28N 32°07' W 081°08'0 0.0
2014-Oct-15 10:09N 32°07' W 081°08'0 0.0
2014-Oct-15 08:20N 32°07' W 081°08'0 0.0
2014-Oct-15 07:26N 32°07' W 081°08'0 0.0
2014-Oct-15 06:31N 32°07' W 081°08'0 0.0
2014-Oct-15 05:31N 32°07' W 081°08'0 0.0
2014-Oct-15 04:28N 32°07' W 081°08'0 0.0
2014-Oct-15 03:30N 32°07' W 081°08'0 0.0
2014-Oct-15 02:33N 32°07' W 081°08'0 0.0
2014-Oct-15 01:32N 32°07' W 081°08'0 0.0
2014-Oct-15 00:32N 32°07' W 081°08'0 0.0
2014-Oct-14 23:32N 32°07' W 081°08'0 0.0
2014-Oct-14 22:31N 32°07' W 081°08'0 0.0
2014-Oct-14 21:30N 32°07' W 081°08'0 0.3
2014-Oct-14 20:33N 32°08' W 081°08'5 5.2
2014-Oct-14 19:34N 32°05' W 081°03'1310.0
2014-Oct-14 18:14N 32°01' W 080°48'49416.1
2014-Oct-13 11:33N 38°16' W 074°14'1919.0
2014-Oct-13 10:32N 38°35' W 074°09'2019.1
2014-Oct-13 09:28N 38°54' W 074°02'1819.3
2014-Oct-13 08:33N 39°11' W 073°57'1919.0
2014-Oct-13 07:33N 39°30' W 073°53'1919.1
2014-Oct-13 06:33N 39°49' W 073°51'1919.1
2014-Oct-13 05:33N 40°08' W 073°50'1817.5
2014-Oct-13 04:33N 40°26' W 073°49'1313.0
2014-Oct-13 03:33N 40°34' W 074°02'7 6.7
2014-Oct-13 02:33N 40°39' W 074°09'2 1.7
2014-Oct-13 01:32N 40°40' W 074°08'0 0.0
2014-Oct-13 00:22N 40°40' W 074°08'0 0.0
2014-Oct-12 23:31N 40°40' W 074°08'0 0.0
2014-Oct-12 22:32N 40°40' W 074°08'0 0.0
2014-Oct-12 19:13N 40°40' W 074°08'0 0.0
2014-Oct-12 12:16N 40°40' W 074°08'  

Dump ship's entire track history